sensor_id;sensor_type;location;lat;lon;timestamp;temperature;humidity
12819;DHT22;6474;53.474;9.894;2024-02-21T00:02:21;9.30;95.00
12819;DHT22;6474;53.474;9.894;2024-02-21T00:04:49;9.30;95.00
12819;DHT22;6474;53.474;9.894;2024-02-21T00:07:17;9.30;95.00
12819;DHT22;6474;53.474;9.894;2024-02-21T00:09:45;9.30;95.00
12819;DHT22;6474;53.474;9.894;2024-02-21T00:12:13;9.30;95.30
12819;DHT22;6474;53.474;9.894;2024-02-21T00:14:41;9.30;95.00
12819;DHT22;6474;53.474;9.894;2024-02-21T00:17:11;9.20;94.90
12819;DHT22;6474;53.474;9.894;2024-02-21T00:19:39;9.20;94.90
12819;DHT22;6474;53.474;9.894;2024-02-21T00:22:07;9.20;94.90
12819;DHT22;6474;53.474;9.894;2024-02-21T00:24:36;9.20;95.00
12819;DHT22;6474;53.474;9.894;2024-02-21T00:27:04;9.20;95.00
12819;DHT22;6474;53.474;9.894;2024-02-21T00:29:32;9.20;95.00
12819;DHT22;6474;53.474;9.894;2024-02-21T00:32:01;9.20;95.00
12819;DHT22;6474;53.474;9.894;2024-02-21T00:34:30;9.20;95.00
12819;DHT22;6474;53.474;9.894;2024-02-21T00:36:58;9.20;95.00
12819;DHT22;6474;53.474;9.894;2024-02-21T00:39:26;9.20;95.00
12819;DHT22;6474;53.474;9.894;2024-02-21T00:41:53;9.20;95.00
12819;DHT22;6474;53.474;9.894;2024-02-21T00:44:21;9.20;95.00
12819;DHT22;6474;53.474;9.894;2024-02-21T00:46:49;9.20;95.00
12819;DHT22;6474;53.474;9.894;2024-02-21T00:49:17;9.20;95.00
12819;DHT22;6474;53.474;9.894;2024-02-21T00:51:47;9.20;95.00
12819;DHT22;6474;53.474;9.894;2024-02-21T00:54:15;9.20;95.00
12819;DHT22;6474;53.474;9.894;2024-02-21T00:56:43;9.20;95.00
12819;DHT22;6474;53.474;9.894;2024-02-21T00:59:11;9.20;95.00
12819;DHT22;6474;53.474;9.894;2024-02-21T01:01:39;9.20;95.00
12819;DHT22;6474;53.474;9.894;2024-02-21T01:04:09;9.20;95.00
12819;DHT22;6474;53.474;9.894;2024-02-21T01:06:37;9.20;95.00
12819;DHT22;6474;53.474;9.894;2024-02-21T01:09:06;9.20;95.00
12819;DHT22;6474;53.474;9.894;2024-02-21T01:11:34;9.20;95.00
12819;DHT22;6474;53.474;9.894;2024-02-21T01:14:02;9.20;95.00
12819;DHT22;6474;53.474;9.894;2024-02-21T01:16:30;9.30;95.00
12819;DHT22;6474;53.474;9.894;2024-02-21T01:18:58;9.30;95.10
12819;DHT22;6474;53.474;9.894;2024-02-21T01:21:26;9.30;95.00
12819;DHT22;6474;53.474;9.894;2024-02-21T01:23:54;9.30;95.00
12819;DHT22;6474;53.474;9.894;2024-02-21T01:26:24;9.20;94.90
12819;DHT22;6474;53.474;9.894;2024-02-21T01:28:51;9.30;95.00
12819;DHT22;6474;53.474;9.894;2024-02-21T01:31:19;9.20;94.90
12819;DHT22;6474;53.474;9.894;2024-02-21T01:33:48;9.20;94.90
12819;DHT22;6474;53.474;9.894;2024-02-21T01:36:16;9.20;95.00
12819;DHT22;6474;53.474;9.894;2024-02-21T01:38:44;9.20;95.00
12819;DHT22;6474;53.474;9.894;2024-02-21T01:41:12;9.20;95.00
12819;DHT22;6474;53.474;9.894;2024-02-21T01:43:41;9.20;95.00
12819;DHT22;6474;53.474;9.894;2024-02-21T01:46:09;9.20;95.00
12819;DHT22;6474;53.474;9.894;2024-02-21T01:48:37;9.20;95.00
12819;DHT22;6474;53.474;9.894;2024-02-21T01:51:05;9.20;94.90
12819;DHT22;6474;53.474;9.894;2024-02-21T01:53:35;9.20;95.00
12819;DHT22;6474;53.474;9.894;2024-02-21T01:56:05;9.20;95.00
12819;DHT22;6474;53.474;9.894;2024-02-21T01:58:36;9.10;94.90
12819;DHT22;6474;53.474;9.894;2024-02-21T02:01:06;9.10;95.00
12819;DHT22;6474;53.474;9.894;2024-02-21T02:03:34;9.10;95.00
12819;DHT22;6474;53.474;9.894;2024-02-21T02:06:03;9.10;95.00
12819;DHT22;6474;53.474;9.894;2024-02-21T02:08:32;9.10;95.00
12819;DHT22;6474;53.474;9.894;2024-02-21T02:11:01;9.10;95.00
12819;DHT22;6474;53.474;9.894;2024-02-21T02:13:29;9.10;95.00
12819;DHT22;6474;53.474;9.894;2024-02-21T02:15:57;9.10;95.00
12819;DHT22;6474;53.474;9.894;2024-02-21T02:18:26;9.10;95.00
12819;DHT22;6474;53.474;9.894;2024-02-21T02:20:54;9.10;95.00
12819;DHT22;6474;53.474;9.894;2024-02-21T02:23:25;9.10;95.00
12819;DHT22;6474;53.474;9.894;2024-02-21T02:25:53;9.10;95.00
12819;DHT22;6474;53.474;9.894;2024-02-21T02:28:22;9.10;95.10
12819;DHT22;6474;53.474;9.894;2024-02-21T02:30:50;9.10;95.10
12819;DHT22;6474;53.474;9.894;2024-02-21T02:33:18;9.10;95.10
12819;DHT22;6474;53.474;9.894;2024-02-21T02:35:47;9.10;95.00
12819;DHT22;6474;53.474;9.894;2024-02-21T02:38:14;9.10;95.00
12819;DHT22;6474;53.474;9.894;2024-02-21T02:40:44;9.10;95.00
12819;DHT22;6474;53.474;9.894;2024-02-21T02:43:12;9.10;95.00
12819;DHT22;6474;53.474;9.894;2024-02-21T02:45:40;9.10;95.00
12819;DHT22;6474;53.474;9.894;2024-02-21T02:48:08;9.10;95.10
12819;DHT22;6474;53.474;9.894;2024-02-21T02:50:36;9.00;95.00
12819;DHT22;6474;53.474;9.894;2024-02-21T02:53:04;9.10;95.10
12819;DHT22;6474;53.474;9.894;2024-02-21T02:55:31;9.10;95.00
12819;DHT22;6474;53.474;9.894;2024-02-21T02:58:03;9.10;95.10
12819;DHT22;6474;53.474;9.894;2024-02-21T03:00:31;9.10;95.00
12819;DHT22;6474;53.474;9.894;2024-02-21T03:03:03;9.00;95.00
12819;DHT22;6474;53.474;9.894;2024-02-21T03:05:31;9.10;95.00
12819;DHT22;6474;53.474;9.894;2024-02-21T03:07:59;9.00;95.00
12819;DHT22;6474;53.474;9.894;2024-02-21T03:10:26;9.00;95.00
12819;DHT22;6474;53.474;9.894;2024-02-21T03:12:54;9.10;95.10
12819;DHT22;6474;53.474;9.894;2024-02-21T03:15:23;9.10;95.10
12819;DHT22;6474;53.474;9.894;2024-02-21T03:17:51;9.10;95.10
12819;DHT22;6474;53.474;9.894;2024-02-21T03:20:19;9.10;95.10
12819;DHT22;6474;53.474;9.894;2024-02-21T03:22:47;9.10;95.10
12819;DHT22;6474;53.474;9.894;2024-02-21T03:25:15;9.10;95.10
12819;DHT22;6474;53.474;9.894;2024-02-21T03:27:43;9.10;95.10
12819;DHT22;6474;53.474;9.894;2024-02-21T03:30:12;9.20;95.10
12819;DHT22;6474;53.474;9.894;2024-02-21T03:32:41;9.20;95.10
12819;DHT22;6474;53.474;9.894;2024-02-21T03:35:09;9.20;95.10
12819;DHT22;6474;53.474;9.894;2024-02-21T03:37:37;9.20;95.10
12819;DHT22;6474;53.474;9.894;2024-02-21T03:40:08;9.20;95.10
12819;DHT22;6474;53.474;9.894;2024-02-21T03:42:36;9.20;95.10
12819;DHT22;6474;53.474;9.894;2024-02-21T03:45:05;9.30;95.10
12819;DHT22;6474;53.474;9.894;2024-02-21T03:47:33;9.30;95.10
12819;DHT22;6474;53.474;9.894;2024-02-21T03:50:03;9.30;95.10
12819;DHT22;6474;53.474;9.894;2024-02-21T03:52:32;9.30;95.10
12819;DHT22;6474;53.474;9.894;2024-02-21T03:55:00;9.30;95.10
12819;DHT22;6474;53.474;9.894;2024-02-21T03:57:28;9.30;95.10
12819;DHT22;6474;53.474;9.894;2024-02-21T03:59:56;9.30;95.10
12819;DHT22;6474;53.474;9.894;2024-02-21T04:02:24;9.30;95.10
12819;DHT22;6474;53.474;9.894;2024-02-21T04:04:52;9.30;95.10
12819;DHT22;6474;53.474;9.894;2024-02-21T04:07:22;9.30;95.10
12819;DHT22;6474;53.474;9.894;2024-02-21T04:09:50;9.30;95.00
12819;DHT22;6474;53.474;9.894;2024-02-21T04:12:18;9.30;95.00
12819;DHT22;6474;53.474;9.894;2024-02-21T04:14:45;9.20;95.00
12819;DHT22;6474;53.474;9.894;2024-02-21T04:17:13;9.20;95.00
12819;DHT22;6474;53.474;9.894;2024-02-21T04:19:41;9.20;95.00
12819;DHT22;6474;53.474;9.894;2024-02-21T04:22:09;9.20;95.00
12819;DHT22;6474;53.474;9.894;2024-02-21T04:24:38;9.20;95.10
12819;DHT22;6474;53.474;9.894;2024-02-21T04:27:06;9.20;95.10
12819;DHT22;6474;53.474;9.894;2024-02-21T04:29:34;9.10;95.10
12819;DHT22;6474;53.474;9.894;2024-02-21T04:32:02;9.20;95.10
12819;DHT22;6474;53.474;9.894;2024-02-21T04:34:31;9.20;95.10
12819;DHT22;6474;53.474;9.894;2024-02-21T04:37:00;9.10;95.10
12819;DHT22;6474;53.474;9.894;2024-02-21T04:39:27;9.10;95.10
12819;DHT22;6474;53.474;9.894;2024-02-21T04:41:57;9.10;95.10
12819;DHT22;6474;53.474;9.894;2024-02-21T04:44:24;9.10;95.10
12819;DHT22;6474;53.474;9.894;2024-02-21T04:46:52;9.10;95.10
12819;DHT22;6474;53.474;9.894;2024-02-21T04:49:20;9.10;95.10
12819;DHT22;6474;53.474;9.894;2024-02-21T04:51:48;9.10;95.10
12819;DHT22;6474;53.474;9.894;2024-02-21T04:54:16;9.00;95.10
12819;DHT22;6474;53.474;9.894;2024-02-21T04:56:44;9.00;95.10
12819;DHT22;6474;53.474;9.894;2024-02-21T04:59:13;9.10;95.10
12819;DHT22;6474;53.474;9.894;2024-02-21T05:01:41;9.00;95.10
12819;DHT22;6474;53.474;9.894;2024-02-21T05:04:09;9.00;95.10
12819;DHT22;6474;53.474;9.894;2024-02-21T05:06:37;9.00;95.10
12819;DHT22;6474;53.474;9.894;2024-02-21T05:09:06;9.10;95.20
12819;DHT22;6474;53.474;9.894;2024-02-21T05:11:35;9.00;95.10
12819;DHT22;6474;53.474;9.894;2024-02-21T05:14:03;9.00;95.10
12819;DHT22;6474;53.474;9.894;2024-02-21T05:16:33;9.00;95.10
12819;DHT22;6474;53.474;9.894;2024-02-21T05:19:01;9.00;95.10
12819;DHT22;6474;53.474;9.894;2024-02-21T05:21:31;9.00;95.10
12819;DHT22;6474;53.474;9.894;2024-02-21T05:23:59;9.00;95.10
12819;DHT22;6474;53.474;9.894;2024-02-21T05:26:27;9.00;95.10
12819;DHT22;6474;53.474;9.894;2024-02-21T05:28:55;9.00;95.10
12819;DHT22;6474;53.474;9.894;2024-02-21T05:31:24;9.00;95.10
12819;DHT22;6474;53.474;9.894;2024-02-21T05:33:53;9.00;95.10
12819;DHT22;6474;53.474;9.894;2024-02-21T05:36:21;9.00;95.10
12819;DHT22;6474;53.474;9.894;2024-02-21T05:38:48;9.00;95.10
12819;DHT22;6474;53.474;9.894;2024-02-21T05:41:16;9.00;95.20
12819;DHT22;6474;53.474;9.894;2024-02-21T05:43:44;9.00;95.20
12819;DHT22;6474;53.474;9.894;2024-02-21T05:46:12;9.00;95.20
12819;DHT22;6474;53.474;9.894;2024-02-21T05:48:40;9.00;95.20
12819;DHT22;6474;53.474;9.894;2024-02-21T05:51:09;9.00;95.20
12819;DHT22;6474;53.474;9.894;2024-02-21T05:53:37;9.00;95.20
12819;DHT22;6474;53.474;9.894;2024-02-21T05:56:10;9.00;95.20
12819;DHT22;6474;53.474;9.894;2024-02-21T05:58:38;9.00;95.20
12819;DHT22;6474;53.474;9.894;2024-02-21T06:01:07;9.00;95.20
12819;DHT22;6474;53.474;9.894;2024-02-21T06:03:35;9.00;95.20
12819;DHT22;6474;53.474;9.894;2024-02-21T06:06:04;9.00;95.20
12819;DHT22;6474;53.474;9.894;2024-02-21T06:08:34;9.00;95.20
12819;DHT22;6474;53.474;9.894;2024-02-21T06:11:02;9.00;95.20
12819;DHT22;6474;53.474;9.894;2024-02-21T06:13:30;9.00;95.20
12819;DHT22;6474;53.474;9.894;2024-02-21T06:15:57;9.00;95.20
12819;DHT22;6474;53.474;9.894;2024-02-21T06:18:25;9.00;95.20
12819;DHT22;6474;53.474;9.894;2024-02-21T06:20:53;9.00;95.20
12819;DHT22;6474;53.474;9.894;2024-02-21T06:23:21;9.00;95.20
12819;DHT22;6474;53.474;9.894;2024-02-21T06:25:50;9.00;95.20
12819;DHT22;6474;53.474;9.894;2024-02-21T06:28:18;9.00;95.20
12819;DHT22;6474;53.474;9.894;2024-02-21T06:30:47;9.00;95.20
12819;DHT22;6474;53.474;9.894;2024-02-21T06:33:15;9.00;95.20
12819;DHT22;6474;53.474;9.894;2024-02-21T06:35:42;9.00;95.20
12819;DHT22;6474;53.474;9.894;2024-02-21T06:38:13;9.00;95.20
12819;DHT22;6474;53.474;9.894;2024-02-21T06:40:44;9.00;95.20
12819;DHT22;6474;53.474;9.894;2024-02-21T06:43:19;9.00;95.20
12819;DHT22;6474;53.474;9.894;2024-02-21T06:45:47;9.00;95.20
12819;DHT22;6474;53.474;9.894;2024-02-21T06:48:18;9.00;95.20
12819;DHT22;6474;53.474;9.894;2024-02-21T06:50:46;9.00;95.20
12819;DHT22;6474;53.474;9.894;2024-02-21T06:53:14;9.10;95.30
12819;DHT22;6474;53.474;9.894;2024-02-21T06:55:43;9.10;95.30
12819;DHT22;6474;53.474;9.894;2024-02-21T06:58:11;9.10;95.30
12819;DHT22;6474;53.474;9.894;2024-02-21T07:00:42;9.10;95.30
12819;DHT22;6474;53.474;9.894;2024-02-21T07:03:10;9.10;95.30
12819;DHT22;6474;53.474;9.894;2024-02-21T07:05:38;9.10;95.30
12819;DHT22;6474;53.474;9.894;2024-02-21T07:08:06;9.10;95.30
12819;DHT22;6474;53.474;9.894;2024-02-21T07:10:34;9.10;95.30
12819;DHT22;6474;53.474;9.894;2024-02-21T07:13:02;9.10;95.30
12819;DHT22;6474;53.474;9.894;2024-02-21T07:15:30;9.10;95.30
12819;DHT22;6474;53.474;9.894;2024-02-21T07:18:01;9.20;95.40
12819;DHT22;6474;53.474;9.894;2024-02-21T07:20:29;9.20;95.40
12819;DHT22;6474;53.474;9.894;2024-02-21T07:22:57;9.20;95.40
12819;DHT22;6474;53.474;9.894;2024-02-21T07:25:25;9.20;95.30
12819;DHT22;6474;53.474;9.894;2024-02-21T07:27:52;9.20;95.30
12819;DHT22;6474;53.474;9.894;2024-02-21T07:30:20;9.20;95.30
12819;DHT22;6474;53.474;9.894;2024-02-21T07:32:49;9.20;95.30
12819;DHT22;6474;53.474;9.894;2024-02-21T07:35:18;9.20;95.40
12819;DHT22;6474;53.474;9.894;2024-02-21T07:37:47;9.30;95.40
12819;DHT22;6474;53.474;9.894;2024-02-21T07:40:15;9.30;95.40
12819;DHT22;6474;53.474;9.894;2024-02-21T07:42:43;9.20;95.30
12819;DHT22;6474;53.474;9.894;2024-02-21T07:45:17;9.30;95.40
12819;DHT22;6474;53.474;9.894;2024-02-21T07:47:48;9.20;95.30
12819;DHT22;6474;53.474;9.894;2024-02-21T07:50:18;9.30;95.40
12819;DHT22;6474;53.474;9.894;2024-02-21T07:52:46;9.20;95.30
12819;DHT22;6474;53.474;9.894;2024-02-21T07:55:14;9.30;95.40
12819;DHT22;6474;53.474;9.894;2024-02-21T07:57:42;9.30;95.40
12819;DHT22;6474;53.474;9.894;2024-02-21T08:00:10;9.30;95.40
12819;DHT22;6474;53.474;9.894;2024-02-21T08:02:44;9.30;95.40
12819;DHT22;6474;53.474;9.894;2024-02-21T08:05:11;9.30;95.40
12819;DHT22;6474;53.474;9.894;2024-02-21T08:07:41;9.40;95.50
12819;DHT22;6474;53.474;9.894;2024-02-21T08:10:09;9.40;95.50
12819;DHT22;6474;53.474;9.894;2024-02-21T08:12:37;9.40;95.40
12819;DHT22;6474;53.474;9.894;2024-02-21T08:15:06;9.40;95.40
12819;DHT22;6474;53.474;9.894;2024-02-21T08:17:34;9.40;95.40
12819;DHT22;6474;53.474;9.894;2024-02-21T08:20:03;9.40;95.40
12819;DHT22;6474;53.474;9.894;2024-02-21T08:22:32;9.40;95.40
12819;DHT22;6474;53.474;9.894;2024-02-21T08:25:01;9.40;95.40
12819;DHT22;6474;53.474;9.894;2024-02-21T08:27:32;9.40;95.40
12819;DHT22;6474;53.474;9.894;2024-02-21T08:30:01;9.40;95.40
12819;DHT22;6474;53.474;9.894;2024-02-21T08:32:31;9.40;95.40
12819;DHT22;6474;53.474;9.894;2024-02-21T08:34:59;9.40;95.40
12819;DHT22;6474;53.474;9.894;2024-02-21T08:37:27;9.40;95.40
12819;DHT22;6474;53.474;9.894;2024-02-21T08:39:55;9.40;95.30
12819;DHT22;6474;53.474;9.894;2024-02-21T08:42:24;9.40;95.30
12819;DHT22;6474;53.474;9.894;2024-02-21T08:44:52;9.40;95.30
12819;DHT22;6474;53.474;9.894;2024-02-21T08:47:20;9.40;95.30
12819;DHT22;6474;53.474;9.894;2024-02-21T08:49:47;9.40;95.30
12819;DHT22;6474;53.474;9.894;2024-02-21T08:52:16;9.40;95.30
12819;DHT22;6474;53.474;9.894;2024-02-21T08:54:43;9.40;95.30
12819;DHT22;6474;53.474;9.894;2024-02-21T08:57:11;9.40;95.30
12819;DHT22;6474;53.474;9.894;2024-02-21T08:59:41;9.40;95.30
12819;DHT22;6474;53.474;9.894;2024-02-21T09:02:09;9.40;95.30
12819;DHT22;6474;53.474;9.894;2024-02-21T09:04:37;9.40;95.30
12819;DHT22;6474;53.474;9.894;2024-02-21T09:07:05;9.40;95.30
12819;DHT22;6474;53.474;9.894;2024-02-21T09:09:33;9.40;95.40
12819;DHT22;6474;53.474;9.894;2024-02-21T09:12:01;9.50;95.40
12819;DHT22;6474;53.474;9.894;2024-02-21T09:14:32;9.50;95.40
12819;DHT22;6474;53.474;9.894;2024-02-21T09:17:02;9.50;95.40
12819;DHT22;6474;53.474;9.894;2024-02-21T09:19:30;9.50;95.30
12819;DHT22;6474;53.474;9.894;2024-02-21T09:21:58;9.50;95.30
12819;DHT22;6474;53.474;9.894;2024-02-21T09:24:26;9.50;95.30
12819;DHT22;6474;53.474;9.894;2024-02-21T09:26:53;9.50;95.30
12819;DHT22;6474;53.474;9.894;2024-02-21T09:29:22;9.50;95.40
12819;DHT22;6474;53.474;9.894;2024-02-21T09:31:53;9.50;95.30
12819;DHT22;6474;53.474;9.894;2024-02-21T09:34:22;9.50;95.30
12819;DHT22;6474;53.474;9.894;2024-02-21T09:36:50;9.60;95.30
12819;DHT22;6474;53.474;9.894;2024-02-21T09:39:18;9.60;95.30
12819;DHT22;6474;53.474;9.894;2024-02-21T09:41:50;9.60;95.40
12819;DHT22;6474;53.474;9.894;2024-02-21T09:44:22;9.60;95.40
12819;DHT22;6474;53.474;9.894;2024-02-21T09:46:55;9.60;95.40
12819;DHT22;6474;53.474;9.894;2024-02-21T09:49:32;9.60;95.40
12819;DHT22;6474;53.474;9.894;2024-02-21T09:52:02;9.60;95.40
12819;DHT22;6474;53.474;9.894;2024-02-21T09:54:30;9.60;95.40
12819;DHT22;6474;53.474;9.894;2024-02-21T09:57:00;9.60;95.40
12819;DHT22;6474;53.474;9.894;2024-02-21T09:59:28;9.60;95.40
12819;DHT22;6474;53.474;9.894;2024-02-21T10:01:57;9.70;95.50
12819;DHT22;6474;53.474;9.894;2024-02-21T10:04:30;9.70;95.60
12819;DHT22;6474;53.474;9.894;2024-02-21T10:06:59;9.70;95.50
12819;DHT22;6474;53.474;9.894;2024-02-21T10:09:27;9.70;95.50
12819;DHT22;6474;53.474;9.894;2024-02-21T10:12:07;9.70;95.50
12819;DHT22;6474;53.474;9.894;2024-02-21T10:14:35;9.70;95.60
12819;DHT22;6474;53.474;9.894;2024-02-21T10:17:03;9.70;95.60
12819;DHT22;6474;53.474;9.894;2024-02-21T10:19:37;9.70;95.60
12819;DHT22;6474;53.474;9.894;2024-02-21T10:22:07;9.80;95.70
12819;DHT22;6474;53.474;9.894;2024-02-21T10:24:36;9.80;95.70
12819;DHT22;6474;53.474;9.894;2024-02-21T10:27:08;9.80;95.70
12819;DHT22;6474;53.474;9.894;2024-02-21T10:29:39;9.80;95.70
12819;DHT22;6474;53.474;9.894;2024-02-21T10:32:08;9.80;95.70
12819;DHT22;6474;53.474;9.894;2024-02-21T10:34:40;9.80;95.70
12819;DHT22;6474;53.474;9.894;2024-02-21T10:37:10;9.90;95.80
12819;DHT22;6474;53.474;9.894;2024-02-21T10:39:39;9.90;95.80
12819;DHT22;6474;53.474;9.894;2024-02-21T10:42:11;9.90;95.70
12819;DHT22;6474;53.474;9.894;2024-02-21T10:44:40;9.90;95.70
12819;DHT22;6474;53.474;9.894;2024-02-21T10:47:10;9.90;95.60
12819;DHT22;6474;53.474;9.894;2024-02-21T10:49:41;9.90;95.70
12819;DHT22;6474;53.474;9.894;2024-02-21T10:52:21;9.90;95.70
12819;DHT22;6474;53.474;9.894;2024-02-21T10:54:55;9.90;95.70
12819;DHT22;6474;53.474;9.894;2024-02-21T10:57:25;9.90;95.70
12819;DHT22;6474;53.474;9.894;2024-02-21T10:59:55;9.90;95.70
12819;DHT22;6474;53.474;9.894;2024-02-21T11:02:26;9.90;95.70
12819;DHT22;6474;53.474;9.894;2024-02-21T11:04:59;9.90;95.70
12819;DHT22;6474;53.474;9.894;2024-02-21T11:07:27;9.90;95.70
12819;DHT22;6474;53.474;9.894;2024-02-21T11:09:55;9.90;95.70
12819;DHT22;6474;53.474;9.894;2024-02-21T11:12:24;9.90;95.70
12819;DHT22;6474;53.474;9.894;2024-02-21T11:15:04;9.80;95.70
12819;DHT22;6474;53.474;9.894;2024-02-21T11:17:32;9.90;95.70
12819;DHT22;6474;53.474;9.894;2024-02-21T11:20:14;9.80;95.70
12819;DHT22;6474;53.474;9.894;2024-02-21T11:22:42;9.80;95.70
12819;DHT22;6474;53.474;9.894;2024-02-21T11:25:11;9.80;95.70
12819;DHT22;6474;53.474;9.894;2024-02-21T11:27:39;9.90;95.70
12819;DHT22;6474;53.474;9.894;2024-02-21T11:30:13;9.90;95.70
12819;DHT22;6474;53.474;9.894;2024-02-21T11:32:43;9.90;95.80
12819;DHT22;6474;53.474;9.894;2024-02-21T11:35:19;9.90;95.70
12819;DHT22;6474;53.474;9.894;2024-02-21T11:37:47;9.80;95.70
12819;DHT22;6474;53.474;9.894;2024-02-21T11:40:15;9.90;95.80
12819;DHT22;6474;53.474;9.894;2024-02-21T11:42:43;9.90;95.70
12819;DHT22;6474;53.474;9.894;2024-02-21T11:45:11;9.90;95.80
12819;DHT22;6474;53.474;9.894;2024-02-21T11:47:42;9.90;95.80
12819;DHT22;6474;53.474;9.894;2024-02-21T11:50:10;9.90;95.80
12819;DHT22;6474;53.474;9.894;2024-02-21T11:52:43;9.90;95.80
12819;DHT22;6474;53.474;9.894;2024-02-21T11:55:10;9.90;95.70
12819;DHT22;6474;53.474;9.894;2024-02-21T11:57:38;9.90;95.70
12819;DHT22;6474;53.474;9.894;2024-02-21T12:00:14;9.90;95.80
12819;DHT22;6474;53.474;9.894;2024-02-21T12:02:42;9.90;95.80
12819;DHT22;6474;53.474;9.894;2024-02-21T12:05:10;9.90;95.70
12819;DHT22;6474;53.474;9.894;2024-02-21T12:07:39;9.90;95.70
12819;DHT22;6474;53.474;9.894;2024-02-21T12:10:09;9.90;95.70
12819;DHT22;6474;53.474;9.894;2024-02-21T12:12:38;9.90;95.70
12819;DHT22;6474;53.474;9.894;2024-02-21T12:15:07;9.90;95.70
12819;DHT22;6474;53.474;9.894;2024-02-21T12:17:35;9.80;95.60
12819;DHT22;6474;53.474;9.894;2024-02-21T12:20:04;9.80;95.60
12819;DHT22;6474;53.474;9.894;2024-02-21T12:22:36;9.80;95.60
12819;DHT22;6474;53.474;9.894;2024-02-21T12:25:15;9.80;95.70
12819;DHT22;6474;53.474;9.894;2024-02-21T12:27:44;9.80;95.70
12819;DHT22;6474;53.474;9.894;2024-02-21T12:30:13;9.70;95.70
12819;DHT22;6474;53.474;9.894;2024-02-21T12:32:40;9.70;95.70
12819;DHT22;6474;53.474;9.894;2024-02-21T12:35:09;9.70;95.70
12819;DHT22;6474;53.474;9.894;2024-02-21T12:37:37;9.80;95.80
12819;DHT22;6474;53.474;9.894;2024-02-21T12:40:08;9.80;95.80
12819;DHT22;6474;53.474;9.894;2024-02-21T12:42:38;9.80;95.80
12819;DHT22;6474;53.474;9.894;2024-02-21T12:45:07;9.80;95.80
12819;DHT22;6474;53.474;9.894;2024-02-21T12:47:35;9.80;95.80
12819;DHT22;6474;53.474;9.894;2024-02-21T12:50:04;9.80;95.90
12819;DHT22;6474;53.474;9.894;2024-02-21T12:52:34;9.90;96.00
12819;DHT22;6474;53.474;9.894;2024-02-21T12:55:03;9.90;96.00
12819;DHT22;6474;53.474;9.894;2024-02-21T12:57:31;10.00;95.40
12819;DHT22;6474;53.474;9.894;2024-02-21T13:00:00;10.00;95.40
12819;DHT22;6474;53.474;9.894;2024-02-21T13:02:28;10.10;95.40
12819;DHT22;6474;53.474;9.894;2024-02-21T13:04:56;10.10;95.40
12819;DHT22;6474;53.474;9.894;2024-02-21T13:07:24;10.20;95.50
12819;DHT22;6474;53.474;9.894;2024-02-21T13:09:52;10.30;95.50
12819;DHT22;6474;53.474;9.894;2024-02-21T13:12:20;10.40;95.50
12819;DHT22;6474;53.474;9.894;2024-02-21T13:14:48;10.40;95.40
12819;DHT22;6474;53.474;9.894;2024-02-21T13:17:17;10.40;95.40
12819;DHT22;6474;53.474;9.894;2024-02-21T13:19:46;10.50;95.40
12819;DHT22;6474;53.474;9.894;2024-02-21T13:22:14;10.50;95.30
12819;DHT22;6474;53.474;9.894;2024-02-21T13:24:42;10.50;95.30
12819;DHT22;6474;53.474;9.894;2024-02-21T13:27:10;10.50;95.30
12819;DHT22;6474;53.474;9.894;2024-02-21T13:29:39;10.50;95.20
12819;DHT22;6474;53.474;9.894;2024-02-21T13:32:07;10.50;95.20
12819;DHT22;6474;53.474;9.894;2024-02-21T13:34:36;10.50;95.30
12819;DHT22;6474;53.474;9.894;2024-02-21T13:37:04;10.40;95.30
12819;DHT22;6474;53.474;9.894;2024-02-21T13:39:33;10.50;95.30
12819;DHT22;6474;53.474;9.894;2024-02-21T13:42:02;10.50;95.30
12819;DHT22;6474;53.474;9.894;2024-02-21T13:44:32;10.50;95.30
12819;DHT22;6474;53.474;9.894;2024-02-21T13:47:01;10.40;95.20
12819;DHT22;6474;53.474;9.894;2024-02-21T13:49:29;10.50;95.60
12819;DHT22;6474;53.474;9.894;2024-02-21T13:51:58;10.50;95.30
12819;DHT22;6474;53.474;9.894;2024-02-21T13:54:28;10.50;95.30
12819;DHT22;6474;53.474;9.894;2024-02-21T13:56:56;10.50;95.40
12819;DHT22;6474;53.474;9.894;2024-02-21T13:59:24;10.50;95.40
12819;DHT22;6474;53.474;9.894;2024-02-21T14:01:53;10.50;95.40
12819;DHT22;6474;53.474;9.894;2024-02-21T14:04:21;10.60;95.40
12819;DHT22;6474;53.474;9.894;2024-02-21T14:06:49;10.60;95.40
12819;DHT22;6474;53.474;9.894;2024-02-21T14:09:19;10.60;95.40
12819;DHT22;6474;53.474;9.894;2024-02-21T14:11:46;10.60;95.40
12819;DHT22;6474;53.474;9.894;2024-02-21T14:14:14;10.70;95.40
12819;DHT22;6474;53.474;9.894;2024-02-21T14:16:42;10.70;95.40
12819;DHT22;6474;53.474;9.894;2024-02-21T14:19:10;10.70;95.30
12819;DHT22;6474;53.474;9.894;2024-02-21T14:21:38;10.80;95.40
12819;DHT22;6474;53.474;9.894;2024-02-21T14:24:06;10.70;95.30
12819;DHT22;6474;53.474;9.894;2024-02-21T14:26:36;10.80;95.30
12819;DHT22;6474;53.474;9.894;2024-02-21T14:29:04;10.80;95.40
12819;DHT22;6474;53.474;9.894;2024-02-21T14:31:32;10.80;95.30
12819;DHT22;6474;53.474;9.894;2024-02-21T14:34:00;10.80;95.30
12819;DHT22;6474;53.474;9.894;2024-02-21T14:36:29;10.80;95.30
12819;DHT22;6474;53.474;9.894;2024-02-21T14:38:57;10.80;95.30
12819;DHT22;6474;53.474;9.894;2024-02-21T14:41:25;10.80;95.30
12819;DHT22;6474;53.474;9.894;2024-02-21T14:43:55;10.80;95.30
12819;DHT22;6474;53.474;9.894;2024-02-21T14:46:30;10.80;95.30
12819;DHT22;6474;53.474;9.894;2024-02-21T14:48:58;10.80;95.20
12819;DHT22;6474;53.474;9.894;2024-02-21T14:51:27;10.70;95.20
12819;DHT22;6474;53.474;9.894;2024-02-21T14:53:57;10.70;95.20
12819;DHT22;6474;53.474;9.894;2024-02-21T14:56:24;10.70;95.20
12819;DHT22;6474;53.474;9.894;2024-02-21T14:58:52;10.60;95.20
12819;DHT22;6474;53.474;9.894;2024-02-21T15:01:25;10.60;95.20
12819;DHT22;6474;53.474;9.894;2024-02-21T15:03:53;10.60;95.10
12819;DHT22;6474;53.474;9.894;2024-02-21T15:06:21;10.60;95.10
12819;DHT22;6474;53.474;9.894;2024-02-21T15:08:50;10.60;95.10
12819;DHT22;6474;53.474;9.894;2024-02-21T15:11:18;10.50;95.10
12819;DHT22;6474;53.474;9.894;2024-02-21T15:13:46;10.50;95.10
12819;DHT22;6474;53.474;9.894;2024-02-21T15:16:14;10.50;95.00
12819;DHT22;6474;53.474;9.894;2024-02-21T15:18:44;10.40;95.00
12819;DHT22;6474;53.474;9.894;2024-02-21T15:21:12;10.40;95.00
12819;DHT22;6474;53.474;9.894;2024-02-21T15:23:41;10.40;95.00
12819;DHT22;6474;53.474;9.894;2024-02-21T15:26:10;10.40;95.00
12819;DHT22;6474;53.474;9.894;2024-02-21T15:28:38;10.30;95.00
12819;DHT22;6474;53.474;9.894;2024-02-21T15:31:06;10.30;94.90
12819;DHT22;6474;53.474;9.894;2024-02-21T15:33:34;10.30;94.90
12819;DHT22;6474;53.474;9.894;2024-02-21T15:36:07;10.20;94.90
12819;DHT22;6474;53.474;9.894;2024-02-21T15:38:35;10.20;94.90
12819;DHT22;6474;53.474;9.894;2024-02-21T15:41:03;10.20;94.90
12819;DHT22;6474;53.474;9.894;2024-02-21T15:43:31;10.10;94.80
12819;DHT22;6474;53.474;9.894;2024-02-21T15:46:00;10.10;94.90
12819;DHT22;6474;53.474;9.894;2024-02-21T15:48:27;10.10;94.80
12819;DHT22;6474;53.474;9.894;2024-02-21T15:50:56;10.00;95.10
12819;DHT22;6474;53.474;9.894;2024-02-21T15:53:25;10.00;94.90
12819;DHT22;6474;53.474;9.894;2024-02-21T15:55:53;10.00;94.90
12819;DHT22;6474;53.474;9.894;2024-02-21T15:58:21;9.90;95.30
12819;DHT22;6474;53.474;9.894;2024-02-21T16:00:51;9.90;95.30
12819;DHT22;6474;53.474;9.894;2024-02-21T16:03:19;9.90;95.40
12819;DHT22;6474;53.474;9.894;2024-02-21T16:05:48;9.90;95.30
12819;DHT22;6474;53.474;9.894;2024-02-21T16:08:17;9.90;95.30
12819;DHT22;6474;53.474;9.894;2024-02-21T16:10:47;9.80;95.30